Time;durP1;ratioP1;P1;durP2;ratioP2;P2;SDS_P1;SDS_P2;PMS_P1;PMS_P2;Temp;Humidity;BMP_temperature;BMP_pressure;BME280_temperature;BME280_humidity;BME280_pressure;Samples;Min_cycle;Max_cycle;Signal;HPM_P1;HPM_P2
2024/02/22 00:00:50;;;;;;;;;2.00;2.00;;;;;13.55;76.43;100195.47;2004049;27;2732566;-73
2024/02/22 00:02:03;;;;;;;;;3.00;1.00;;;;;13.54;76.18;100189.31;2004104;28;2735706;-73
2024/02/22 00:03:16;;;;;;;;;2.67;1.17;;;;;13.56;76.31;100189.22;2003145;28;2744047;-73
2024/02/22 00:04:31;;;;;;;;;1.17;1.17;;;;;13.59;76.25;100194.38;2003053;28;2728394;-73
2024/02/22 00:05:41;;;;;;;;;4.00;2.00;;;;;13.56;76.30;100191.88;2001844;28;2750298;-73
2024/02/22 00:06:52;;;;;;;;;1.67;1.67;;;;;13.54;76.38;100191.09;2027387;28;2734649;-73
2024/02/22 00:08:06;;;;;;;;;1.83;1.83;;;;;13.56;76.51;100184.84;2019844;28;2737788;-73
2024/02/22 00:09:19;;;;;;;;;2.67;1.67;;;;;13.56;76.55;100179.56;1997409;28;2741980;-73
2024/02/22 00:10:33;;;;;;;;;2.83;1.83;;;;;13.57;76.46;100177.78;2005601;28;2735690;-72
2024/02/22 00:11:46;;;;;;;;;2.83;2.33;;;;;13.58;76.53;100168.94;2004398;28;2746195;-73
2024/02/22 00:12:59;;;;;;;;;1.17;1.17;;;;;13.58;76.74;100174.22;1990154;28;2736796;-73
2024/02/22 00:14:14;;;;;;;;;2.00;2.00;;;;;13.60;76.25;100165.28;1998619;28;2725270;-73
2024/02/22 00:15:28;;;;;;;;;2.83;1.83;;;;;13.59;76.51;100155.63;2005567;28;2733631;-73
2024/02/22 00:16:41;;;;;;;;;1.00;1.00;;;;;13.62;76.56;100154.59;2005785;27;2721120;-73
2024/02/22 00:17:54;;;;;;;;;3.00;2.00;;;;;13.61;76.44;100155.53;2027551;28;2748189;-73
2024/02/22 00:19:07;;;;;;;;;1.50;1.50;;;;;13.61;76.49;100145.81;2005033;28;2726322;-72
2024/02/22 00:20:20;;;;;;;;;1.67;1.67;;;;;13.60;76.35;100153.84;2004475;28;2732553;-73
2024/02/22 00:21:33;;;;;;;;;1.83;1.83;;;;;13.62;76.72;100146.69;2026957;28;2741928;-73
2024/02/22 00:22:47;;;;;;;;;1.67;1.67;;;;;13.63;76.36;100156.28;2004657;28;2733687;-73
2024/02/22 00:24:00;;;;;;;;;2.17;2.00;;;;;13.61;76.53;100142.31;2002857;27;2744018;-73
2024/02/22 00:25:15;;;;;;;;;3.67;2.00;;;;;13.64;76.78;100143.94;2004695;28;2748186;-73
2024/02/22 00:26:28;;;;;;;;;1.50;1.50;;;;;13.63;76.37;100131.69;2004665;28;2726326;-73
2024/02/22 00:27:41;;;;;;;;;2.00;2.00;;;;;13.62;76.48;100133.47;2005175;28;2726342;-73
2024/02/22 00:28:54;;;;;;;;;1.33;1.33;;;;;13.66;76.54;100137.66;2005603;28;2731528;-72
2024/02/22 00:30:14;;;;;;;;;2.00;2.00;;;;;13.64;76.82;100123.69;2027115;28;2739904;-72
2024/02/22 00:31:27;;;;;;;;;2.00;1.00;;;;;13.67;76.62;100125.31;2005513;27;2722213;-73
2024/02/22 00:32:43;;;;;;;;;0.00;0.00;;;;;13.67;76.46;100126.16;2028358;28;2725310;-73
2024/02/22 00:33:56;;;;;;;;;1.00;1.00;;;;;13.67;76.62;100126.16;2028278;28;2734628;-73
2024/02/22 00:35:10;;;;;;;;;0.83;0.83;;;;;13.68;76.71;100122.56;2004793;27;2740450;-73
2024/02/22 00:36:25;;;;;;;;;1.17;1.17;;;;;13.69;76.69;100118.13;2019696;28;2730493;-73
2024/02/22 00:37:38;;;;;;;;;0.50;0.50;;;;;13.69;77.01;100108.44;2021142;27;2735701;-73
2024/02/22 00:38:52;;;;;;;;;1.67;1.67;;;;;13.71;76.73;100108.34;2026657;27;2739852;-73
2024/02/22 00:40:09;;;;;;;;;1.00;1.00;;;;;13.70;76.62;100102.19;2005496;28;2728395;-73
2024/02/22 00:41:22;;;;;;;;;0.83;0.83;;;;;13.71;76.66;100103.06;2019947;28;2736174;-73
2024/02/22 00:42:35;;;;;;;;;1.00;1.00;;;;;13.74;76.67;100108.19;2001515;28;2736728;-73
2024/02/22 00:43:53;;;;;;;;;0.00;0.00;;;;;13.71;76.53;100095.13;2003520;28;2737774;-73
2024/02/22 00:45:07;;;;;;;;;0.00;0.00;;;;;13.71;76.93;100090.72;2005870;28;2724220;-73
2024/02/22 00:46:20;;;;;;;;;0.83;0.83;;;;;13.71;76.70;100093.34;2028776;28;2723195;-73
2024/02/22 00:47:34;;;;;;;;;1.67;1.67;;;;;13.73;76.51;100102.03;2027899;28;2736796;-73
2024/02/22 00:48:47;;;;;;;;;0.67;0.67;;;;;13.73;76.70;100090.63;2027237;28;2731512;-73
2024/02/22 00:50:00;;;;;;;;;1.00;1.00;;;;;13.73;76.60;100090.63;2004917;28;2731572;-73
2024/02/22 00:51:13;;;;;;;;;1.00;1.00;;;;;13.75;76.68;100087.91;2004410;28;2727349;-73
2024/02/22 00:52:28;;;;;;;;;1.00;1.00;;;;;13.76;76.77;100089.59;2003906;28;2743554;-73
2024/02/22 00:53:42;;;;;;;;;0.83;0.00;;;;;13.76;76.79;100092.22;2004043;28;2726784;-72
2024/02/22 00:54:55;;;;;;;;;1.00;1.00;;;;;13.78;76.48;100098.31;2005423;28;2740891;-73
2024/02/22 00:56:08;;;;;;;;;0.00;0.00;;;;;13.75;76.41;100088.75;2005309;28;2732596;-73
2024/02/22 00:57:21;;;;;;;;;0.83;0.83;;;;;13.75;76.71;100088.75;2005070;28;2724225;-73
2024/02/22 00:58:34;;;;;;;;;1.00;1.00;;;;;13.77;76.92;100083.38;2027799;28;2736737;-73
2024/02/22 00:59:48;;;;;;;;;0.00;0.00;;;;;13.76;76.96;100079.88;1996187;28;2720105;-73
2024/02/22 01:01:01;;;;;;;;;1.17;0.67;;;;;13.78;76.97;100088.56;2021406;28;2730518;-73
2024/02/22 01:02:14;;;;;;;;;1.33;0.00;;;;;13.78;76.73;100083.28;2004112;28;2734080;-73
2024/02/22 01:03:30;;;;;;;;;0.17;0.17;;;;;13.81;76.77;100085.75;2005444;27;2728403;-73
2024/02/22 01:04:44;;;;;;;;;0.17;0.17;;;;;13.81;76.87;100079.63;2004435;28;2732579;-73
2024/02/22 01:05:58;;;;;;;;;0.00;0.00;;;;;13.80;76.73;100072.66;2005710;28;2729476;-73
2024/02/22 01:07:11;;;;;;;;;0.00;0.00;;;;;13.79;76.98;100079.72;2003832;28;2728427;-73
2024/02/22 01:08:24;;;;;;;;;1.00;1.00;;;;;13.80;77.09;100070.00;2026920;28;2733953;-73
2024/02/22 01:09:37;;;;;;;;;0.00;0.00;;;;;13.80;76.82;100065.56;2027444;28;2729440;-73
2024/02/22 01:10:50;;;;;;;;;0.00;0.00;;;;;13.81;76.89;100055.84;2024970;28;2733642;-73
2024/02/22 01:12:04;;;;;;;;;0.50;0.50;;;;;13.81;76.98;100056.69;2027346;28;2726303;-73
2024/02/22 01:13:17;;;;;;;;;0.83;0.83;;;;;13.81;76.91;100050.56;2028139;28;2737098;-73
2024/02/22 01:14:30;;;;;;;;;0.00;0.00;;;;;13.81;77.10;100047.91;2005352;28;2731571;-72
2024/02/22 01:15:44;;;;;;;;;0.00;0.00;;;;;13.82;77.11;100042.56;2028531;28;2727357;-73
2024/02/22 01:16:57;;;;;;;;;0.00;0.00;;;;;13.82;76.98;100029.34;2005663;28;2731505;-73
2024/02/22 01:18:10;;;;;;;;;0.00;0.00;;;;;13.83;77.01;100036.31;2005217;28;2725302;-73
2024/02/22 01:19:23;;;;;;;;;0.00;0.00;;;;;13.83;76.59;100025.75;2005173;28;2725321;-73
2024/02/22 01:20:37;;;;;;;;;0.00;0.00;;;;;13.83;77.03;100027.53;2003513;28;2733634;-73
2024/02/22 01:21:50;;;;;;;;;0.00;0.00;;;;;13.83;77.19;100025.75;2028842;28;2727365;-75
2024/02/22 01:23:06;;;;;;;;;0.00;0.00;;;;;13.86;77.07;100027.38;2005766;28;2725269;-73
2024/02/22 01:24:19;;;;;;;;;0.33;0.33;;;;;13.86;77.18;100031.81;2027568;28;2731549;-73
2024/02/22 01:25:32;;;;;;;;;0.00;0.00;;;;;13.84;76.96;100032.75;1995781;28;2731533;-73
2024/02/22 01:26:45;;;;;;;;;0.83;0.83;;;;;13.86;77.07;100032.66;1998015;28;2731528;-73
2024/02/22 01:27:58;;;;;;;;;0.50;0.00;;;;;13.84;77.01;100021.34;2027801;28;2729954;-73
2024/02/22 01:29:12;;;;;;;;;1.00;1.00;;;;;13.86;77.19;100022.09;2004249;28;2741932;-73
2024/02/22 01:30:25;;;;;;;;;0.50;0.00;;;;;13.85;77.26;100012.47;2004382;28;2729460;-73
2024/02/22 01:31:38;;;;;;;;;0.00;0.00;;;;;13.86;77.14;100011.53;2005561;28;2725278;-73
2024/02/22 01:32:51;;;;;;;;;0.50;0.50;;;;;13.88;77.30;100019.38;2019224;28;2725321;-73
2024/02/22 01:34:04;;;;;;;;;0.00;0.00;;;;;13.88;77.30;100014.09;1996995;28;2741947;-73
2024/02/22 01:35:18;;;;;;;;;0.00;0.00;;;;;13.87;77.41;100015.03;2005155;28;2731606;-73
2024/02/22 01:36:31;;;;;;;;;0.00;0.00;;;;;13.86;77.24;100003.59;2005262;28;2725310;-73
2024/02/22 01:37:44;;;;;;;;;0.00;0.00;;;;;13.87;77.26;100004.47;2020099;28;2729484;-73
2024/02/22 01:38:57;;;;;;;;;0.00;0.00;;;;;13.86;77.41;100000.97;2004644;27;2727360;-73
2024/02/22 01:40:12;;;;;;;;;1.33;1.00;;;;;13.86;77.43;100003.59;2004782;28;2739857;-73
2024/02/22 01:41:25;;;;;;;;;0.00;0.00;;;;;13.86;77.51;100003.59;2030307;28;2706509;-73
2024/02/22 01:42:42;;;;;;;;;0.00;0.00;;;;;13.86;77.60;99998.31;2027833;28;2727401;-73
2024/02/22 01:43:55;;;;;;;;;0.00;0.00;;;;;13.86;77.27;99993.03;2028428;27;2728406;-73
2024/02/22 01:45:09;;;;;;;;;0.17;0.17;;;;;13.87;77.63;99984.19;2004397;28;2737823;-73
2024/02/22 01:46:23;;;;;;;;;0.00;0.00;;;;;13.91;77.32;99984.84;1995973;28;2724236;-73
2024/02/22 01:47:37;;;;;;;;;0.17;0.17;;;;;13.89;77.46;99984.09;2019254;28;2723172;-73
2024/02/22 01:48:50;;;;;;;;;0.00;0.00;;;;;13.92;77.38;99984.78;1998521;28;2729441;-72
2024/02/22 01:50:08;;;;;;;;;0.00;0.00;;;;;13.90;77.31;99981.34;2004305;28;2731508;-73
2024/02/22 01:51:21;;;;;;;;;1.00;0.00;;;;;13.89;77.25;99974.38;2005603;28;2729449;-73
2024/02/22 01:52:34;;;;;;;;;0.00;0.00;;;;;13.92;77.39;99975.97;2027384;28;2730506;-73
2024/02/22 01:53:49;;;;;;;;;0.33;0.33;;;;;13.90;77.44;99968.13;2005552;28;2729467;-73
2024/02/22 01:55:06;;;;;;;;;0.00;0.00;;;;;13.91;77.59;99974.28;2005473;28;2727346;-73
2024/02/22 01:56:20;;;;;;;;;0.67;0.67;;;;;13.91;77.44;99972.50;2005169;28;2728431;-73
2024/02/22 01:57:34;;;;;;;;;0.00;0.00;;;;;13.91;77.50;99969.00;2005094;28;2732543;-73
2024/02/22 01:58:49;;;;;;;;;0.00;0.00;;;;;13.93;77.26;99964.47;2005495;28;2725254;-73
2024/02/22 02:00:11;;;;;;;;;0.00;0.00;;;;;13.91;77.26;99964.56;2003471;28;2727851;-73
2024/02/22 02:01:24;;;;;;;;;0.00;0.00;;;;;13.90;77.53;99957.56;2005132;28;2731509;-73
2024/02/22 02:02:38;;;;;;;;;0.00;0.00;;;;;13.92;77.28;99952.22;2027610;28;2735674;-73
2024/02/22 02:03:53;;;;;;;;;0.17;0.17;;;;;13.91;77.36;99954.00;2005794;28;2725301;-73
2024/02/22 02:05:07;;;;;;;;;0.00;0.00;;;;;13.92;77.54;99949.56;2028192;28;2727342;-73
2024/02/22 02:06:20;;;;;;;;;1.50;0.00;;;;;13.92;77.65;99950.41;2005721;28;2721115;-73
2024/02/22 02:07:35;;;;;;;;;0.00;0.00;;;;;13.91;77.29;99940.78;2019717;27;2733606;-73
2024/02/22 02:08:49;;;;;;;;;0.00;0.00;;;;;13.95;77.25;99942.28;2004595;28;2726312;-73
2024/02/22 02:10:03;;;;;;;;;0.00;0.00;;;;;13.94;77.34;99931.81;2025959;28;2725348;-73
2024/02/22 02:11:17;;;;;;;;;1.00;1.00;;;;;13.97;77.39;99936.06;2021985;28;2718011;-73
2024/02/22 02:12:30;;;;;;;;;0.67;0.17;;;;;13.97;77.42;99930.78;2027028;28;2733642;-73
2024/02/22 02:13:43;;;;;;;;;0.00;0.00;;;;;13.94;77.62;99930.03;2004776;28;2725266;-73
2024/02/22 02:14:57;;;;;;;;;1.00;1.00;;;;;13.95;77.76;99918.53;2028253;28;2723191;-73
2024/02/22 02:16:10;;;;;;;;;0.00;0.00;;;;;13.97;77.44;99913.16;2005362;28;2725349;-73
2024/02/22 02:17:23;;;;;;;;;0.00;0.00;;;;;13.97;77.27;99917.59;2019630;28;2723171;-73
2024/02/22 02:18:38;;;;;;;;;1.00;1.00;;;;;13.98;77.58;99906.06;1999950;27;2727357;-73
2024/02/22 02:19:56;;;;;;;;;0.00;0.00;;;;;14.00;77.59;99915.59;2028098;28;2725782;-73
2024/02/22 02:21:23;;;;;;;;;0.00;0.00;;;;;14.01;77.40;99911.16;2004482;27;2733666;-73
2024/02/22 02:22:55;;;;;;;;;1.00;1.00;;;;;14.01;77.29;99913.81;2005286;28;2727341;-73
2024/02/22 02:24:54;;;;;;;;;0.17;0.17;;;;;14.02;77.41;99907.59;2005671;28;2719477;-73
2024/02/22 02:26:07;;;;;;;;;1.00;1.00;;;;;14.01;77.33;99896.16;1988063;28;2731902;-73
2024/02/22 02:27:20;;;;;;;;;0.00;0.00;;;;;13.99;77.55;99889.28;1985057;28;2740934;-73
2024/02/22 02:28:34;;;;;;;;;1.00;1.00;;;;;14.02;77.29;99895.25;2010981;28;2735698;-73
2024/02/22 02:29:47;;;;;;;;;0.67;0.33;;;;;14.02;77.54;99899.66;2000427;28;2729428;-73
2024/02/22 02:31:00;;;;;;;;;1.00;1.00;;;;;14.01;77.39;99890.03;2028245;28;2725286;-73
2024/02/22 02:32:13;;;;;;;;;0.50;0.50;;;;;14.02;77.41;99891.75;2004270;28;2733595;-73
2024/02/22 02:33:26;;;;;;;;;0.00;0.00;;;;;14.01;77.53;99888.25;2004340;28;2727889;-73
2024/02/22 02:34:40;;;;;;;;;1.00;0.50;;;;;14.01;77.48;99879.47;2027549;28;2725309;-73
2024/02/22 02:35:53;;;;;;;;;1.50;0.50;;;;;14.00;77.52;99883.88;2004492;27;2729496;-73
2024/02/22 02:37:06;;;;;;;;;0.00;0.00;;;;;13.99;77.40;99868.16;2005766;27;2721123;-73
2024/02/22 02:38:19;;;;;;;;;0.33;0.00;;;;;13.99;77.70;99871.63;2028403;28;2722157;-73
2024/02/22 02:39:32;;;;;;;;;0.00;0.00;;;;;14.01;77.33;99874.19;2004477;28;2726335;-73
2024/02/22 02:40:46;;;;;;;;;0.00;0.00;;;;;13.99;77.62;99866.34;2026695;28;2731508;-73
2024/02/22 02:41:59;;;;;;;;;1.00;1.00;;;;;13.98;77.46;99864.66;2004712;28;2717971;-73
2024/02/22 02:43:12;;;;;;;;;1.50;1.00;;;;;14.01;77.72;99876.81;2003876;28;2741968;-73
2024/02/22 02:44:25;;;;;;;;;0.00;0.00;;;;;13.98;77.56;99866.44;1996119;28;2725278;-73
2024/02/22 02:45:38;;;;;;;;;1.83;1.83;;;;;14.00;77.66;99868.03;1995994;28;2746137;-73
2024/02/22 02:46:52;;;;;;;;;2.00;2.00;;;;;13.98;77.40;99858.50;1996339;28;2721127;-73
2024/02/22 02:48:05;;;;;;;;;1.50;1.17;;;;;13.98;77.62;99853.22;1996720;28;2740313;-73
2024/02/22 02:49:19;;;;;;;;;1.50;1.50;;;;;13.97;77.70;99846.25;2003545;28;2744019;-73
2024/02/22 02:50:32;;;;;;;;;2.83;2.83;;;;;13.95;77.99;99839.25;2026218;28;2754471;-73
2024/02/22 02:51:42;;;;;;;;;3.33;3.00;;;;;14.00;77.78;99849.53;1977918;28;2754428;-73
2024/02/22 02:52:53;;;;;;;;;3.00;3.00;;;;;13.98;77.77;99843.50;2025519;28;2749223;-73
2024/02/22 02:54:04;;;;;;;;;3.00;3.00;;;;;14.00;77.72;99844.25;2001678;28;2750269;-73
2024/02/22 02:55:15;;;;;;;;;3.00;3.00;;;;;14.00;77.59;99835.50;2026084;28;2733600;-73
2024/02/22 02:56:31;;;;;;;;;2.50;2.50;;;;;14.00;77.43;99844.25;2027627;28;2733084;-73
2024/02/22 02:57:45;;;;;;;;;0.67;0.67;;;;;14.02;77.48;99846.81;2004772;28;2729418;-73
2024/02/22 02:58:59;;;;;;;;;1.00;1.00;;;;;14.02;77.71;99834.47;2004481;28;2739849;-73
2024/02/22 03:00:14;;;;;;;;;0.50;0.50;;;;;14.01;77.68;99839.84;1996633;28;2727377;-73
2024/02/22 03:01:27;;;;;;;;;1.50;1.00;;;;;14.02;77.65;99820.41;1997011;28;2735667;-73
2024/02/22 03:02:40;;;;;;;;;0.17;0.17;;;;;14.02;77.63;99823.91;2017966;28;2729437;-73
2024/02/22 03:03:53;;;;;;;;;0.00;0.00;;;;;14.01;77.87;99811.63;1996263;28;2733614;-73
2024/02/22 03:05:08;;;;;;;;;0.00;0.00;;;;;14.03;77.70;99817.66;2020700;28;2719008;-73
2024/02/22 03:06:21;;;;;;;;;0.00;0.00;;;;;14.03;77.59;99814.16;2004647;27;2730849;-73
2024/02/22 03:07:35;;;;;;;;;0.00;0.00;;;;;14.03;77.60;99811.53;2027660;27;2727350;-73
2024/02/22 03:08:48;;;;;;;;;0.00;0.00;;;;;14.03;77.61;99809.72;2005408;28;2721080;-73
2024/02/22 03:10:02;;;;;;;;;0.83;0.83;;;;;14.03;77.55;99800.94;1996264;28;2729511;-73
2024/02/22 03:11:15;;;;;;;;;0.00;0.00;;;;;14.05;77.69;99801.72;1998255;28;2729768;-73
2024/02/22 03:12:29;;;;;;;;;0.00;0.00;;;;;14.03;77.78;99795.66;2003489;28;2733600;-73
2024/02/22 03:13:42;;;;;;;;;0.00;0.00;;;;;14.02;77.80;99792.19;2011580;28;2731531;-73
2024/02/22 03:14:55;;;;;;;;;0.00;0.00;;;;;14.03;77.71;99795.66;2034155;28;2724220;-73
2024/02/22 03:16:11;;;;;;;;;0.00;0.00;;;;;14.03;77.70;99787.75;2003191;28;2731568;-73
2024/02/22 03:17:24;;;;;;;;;0.00;0.00;;;;;14.04;77.66;99787.66;2028246;28;2725273;-73
2024/02/22 03:18:38;;;;;;;;;0.00;0.00;;;;;14.03;77.71;99783.31;2004784;28;2733620;-73
2024/02/22 03:19:52;;;;;;;;;0.00;0.00;;;;;14.04;77.68;99784.16;2027383;28;2733989;-73
2024/02/22 03:21:08;;;;;;;;;0.00;0.00;;;;;14.07;77.72;99783.97;2004890;28;2729421;-73
2024/02/22 03:22:22;;;;;;;;;0.17;0.00;;;;;14.05;77.26;99780.59;2028431;28;2721140;-73
2024/02/22 03:23:35;;;;;;;;;0.00;0.00;;;;;14.07;77.80;99779.53;2005081;28;2725247;-73
2024/02/22 03:24:49;;;;;;;;;0.33;0.00;;;;;14.04;77.53;99773.59;2025554;28;2725266;-73
2024/02/22 03:26:03;;;;;;;;;0.00;0.00;;;;;14.06;77.77;99783.13;2005033;27;2728430;-73
2024/02/22 03:27:16;;;;;;;;;0.00;0.00;;;;;14.04;77.63;99773.59;2028130;28;2725273;-73
2024/02/22 03:28:30;;;;;;;;;0.00;0.00;;;;;14.05;77.76;99770.84;2005089;28;2723171;-73
2024/02/22 03:29:46;;;;;;;;;0.00;0.00;;;;;14.04;77.92;99766.53;2027905;28;2722176;-73
2024/02/22 03:30:59;;;;;;;;;0.00;0.00;;;;;14.06;77.79;99763.78;2018366;28;2731512;-73
2024/02/22 03:32:13;;;;;;;;;0.00;0.00;;;;;14.08;77.77;99767.16;1996087;28;2733638;-73
2024/02/22 03:33:27;;;;;;;;;0.00;0.00;;;;;14.05;77.85;99754.16;2005243;28;2724221;-73
2024/02/22 03:34:41;;;;;;;;;0.00;0.00;;;;;14.07;77.86;99760.19;2027832;28;2715353;-73
2024/02/22 03:35:57;;;;;;;;;0.00;0.00;;;;;14.09;77.87;99757.44;2027729;28;2731499;-73
2024/02/22 03:37:12;;;;;;;;;0.00;0.00;;;;;14.05;77.90;99755.00;2012861;28;2727977;-73
2024/02/22 03:38:25;;;;;;;;;0.00;0.00;;;;;14.07;77.98;99749.63;1997047;28;2732561;-73
2024/02/22 03:39:41;;;;;;;;;0.00;0.00;;;;;14.06;77.59;99743.50;2017908;28;2731508;-73
2024/02/22 03:40:54;;;;;;;;;0.00;0.00;;;;;14.04;77.96;99737.47;1998257;28;2725292;-73
2024/02/22 03:42:08;;;;;;;;;0.00;0.00;;;;;14.08;77.93;99738.09;2027721;28;2733595;-73
2024/02/22 03:43:22;;;;;;;;;0.00;0.00;;;;;14.06;77.72;99729.44;2004839;28;2727354;-73
2024/02/22 03:44:35;;;;;;;;;0.00;0.00;;;;;14.07;77.82;99717.94;2003559;28;2737777;-73
2024/02/22 03:45:48;;;;;;;;;0.00;0.00;;;;;14.06;77.92;99703.88;1996084;28;2724248;-73
2024/02/22 03:47:02;;;;;;;;;0.17;0.00;;;;;14.06;78.01;99698.56;2020223;28;2727361;-74
2024/02/22 03:48:15;;;;;;;;;0.00;0.00;;;;;14.09;77.74;99701.97;2005028;28;2729428;-73
2024/02/22 03:49:28;;;;;;;;;0.00;0.00;;;;;14.10;77.86;99703.66;2004727;28;2725294;-74
2024/02/22 03:50:43;;;;;;;;;0.00;0.00;;;;;14.09;77.74;99701.97;2004369;28;2723191;-73
2024/02/22 03:51:56;;;;;;;;;0.00;0.00;;;;;14.11;77.95;99708.84;2028145;28;2725243;-74
2024/02/22 03:53:10;;;;;;;;;0.00;0.00;;;;;14.10;77.80;99709.78;2003695;28;2727353;-73
2024/02/22 03:54:25;;;;;;;;;0.00;0.00;;;;;14.12;77.77;99715.84;2004556;28;2725320;-73
2024/02/22 03:55:38;;;;;;;;;0.00;0.00;;;;;14.12;77.64;99718.47;2005368;28;2723174;-74
2024/02/22 03:56:52;;;;;;;;;0.00;0.00;;;;;14.10;77.99;99712.44;2027341;28;2723215;-73
2024/02/22 03:58:06;;;;;;;;;0.83;0.83;;;;;14.10;77.70;99709.78;2026504;27;2725274;-73
2024/02/22 03:59:19;;;;;;;;;0.17;0.17;;;;;14.09;77.77;99708.09;2027672;28;2720054;-73
2024/02/22 04:00:33;;;;;;;;;0.17;0.17;;;;;14.09;77.86;99705.47;2026666;28;2731527;-73
2024/02/22 04:01:49;;;;;;;;;0.00;0.00;;;;;14.12;77.88;99715.84;2027517;27;2733614;-73
2024/02/22 04:03:03;;;;;;;;;1.00;0.67;;;;;14.13;77.97;99719.31;1996180;28;2733604;-74
2024/02/22 04:04:16;;;;;;;;;0.00;0.00;;;;;14.12;77.89;99723.78;2020758;28;2722160;-73
2024/02/22 04:05:30;;;;;;;;;0.00;0.00;;;;;14.10;78.12;99714.25;2027637;28;2725652;-73
2024/02/22 04:06:43;;;;;;;;;0.00;0.00;;;;;14.11;77.36;99711.50;2022542;27;2731544;-73
2024/02/22 04:07:56;;;;;;;;;0.00;0.00;;;;;14.10;77.86;99707.13;2019617;27;2723235;-73
2024/02/22 04:09:09;;;;;;;;;0.00;0.00;;;;;14.10;77.94;99704.50;2026238;27;2734091;-73
2024/02/22 04:10:23;;;;;;;;;0.50;0.50;;;;;14.10;78.01;99696.56;2004228;28;2735728;-73
2024/02/22 04:11:36;;;;;;;;;0.00;0.00;;;;;14.09;77.96;99692.25;2003402;28;2725266;-74
2024/02/22 04:12:49;;;;;;;;;0.00;0.00;;;;;14.12;77.82;99707.91;2004717;28;2730510;-74
2024/02/22 04:14:03;;;;;;;;;0.00;0.00;;;;;14.10;77.79;99695.75;2003754;28;2727400;-74
2024/02/22 04:15:16;;;;;;;;;0.00;0.00;;;;;14.11;77.75;99690.34;2004742;28;2727342;-74
2024/02/22 04:16:29;;;;;;;;;0.00;0.00;;;;;14.11;77.75;99690.34;2004548;27;2727349;-73
2024/02/22 04:17:42;;;;;;;;;0.00;0.00;;;;;14.12;77.98;99696.50;2005057;28;2721548;-73
2024/02/22 04:18:55;;;;;;;;;1.00;0.00;;;;;14.13;77.80;99696.38;2027306;28;2726308;-73
2024/02/22 04:20:09;;;;;;;;;0.00;0.00;;;;;14.11;78.04;99684.22;2004294;28;2725282;-73
2024/02/22 04:21:22;;;;;;;;;0.00;0.00;;;;;14.13;77.91;99683.16;2027660;28;2722169;-73
2024/02/22 04:22:48;;;;;;;;;0.00;0.00;;;;;14.11;77.83;99682.44;1996000;28;2718003;-74
2024/02/22 04:24:02;;;;;;;;;0.00;0.00;;;;;14.13;77.75;99677.03;1991752;28;2725329;-74
2024/02/22 04:25:15;;;;;;;;;0.00;0.00;;;;;14.10;78.02;99680.72;2026627;28;2731542;-73
2024/02/22 04:26:28;;;;;;;;;0.17;0.17;;;;;14.11;77.90;99685.06;2027251;28;2733591;-73
2024/02/22 04:27:41;;;;;;;;;0.00;0.00;;;;;14.10;77.96;99672.78;2004180;28;2724263;-74
2024/02/22 04:28:54;;;;;;;;;0.00;0.00;;;;;14.10;78.03;99677.25;2003913;28;2728418;-74
2024/02/22 04:30:11;;;;;;;;;0.00;0.00;;;;;14.12;77.90;99681.50;2022571;28;2724252;-74
2024/02/22 04:31:24;;;;;;;;;0.00;0.00;;;;;14.10;77.86;99672.78;2020219;28;2733655;-73
2024/02/22 04:32:37;;;;;;;;;0.00;0.00;;;;;14.12;77.89;99670.06;2003799;28;2725289;-73
2024/02/22 04:33:50;;;;;;;;;0.00;0.00;;;;;14.10;78.02;99670.16;2027469;27;2712770;-73
2024/02/22 04:35:04;;;;;;;;;0.00;0.00;;;;;14.14;78.01;99673.44;2026107;28;2721179;-74
2024/02/22 04:36:17;;;;;;;;;0.00;0.00;;;;;14.10;77.70;99662.22;2020446;28;2733583;-73
2024/02/22 04:37:30;;;;;;;;;0.00;0.00;;;;;14.12;77.91;99662.13;2004702;28;2724244;-74
2024/02/22 04:38:44;;;;;;;;;0.17;0.00;;;;;14.12;78.00;99655.06;2027362;28;2733611;-73
2024/02/22 04:39:57;;;;;;;;;0.00;0.00;;;;;14.13;77.98;99666.47;2004147;28;2734115;-73
2024/02/22 04:41:19;;;;;;;;;1.00;0.00;;;;;14.13;77.86;99655.88;2027008;28;2723179;-73
2024/02/22 04:42:33;;;;;;;;;0.00;0.00;;;;;14.14;77.97;99658.44;2004456;28;2731532;-73
2024/02/22 04:43:46;;;;;;;;;0.00;0.00;;;;;14.15;78.06;99654.00;2004383;28;2731513;-73
2024/02/22 04:45:01;;;;;;;;;0.33;0.33;;;;;14.15;78.33;99648.72;2004356;28;2730481;-73
2024/02/22 04:46:15;;;;;;;;;0.00;0.00;;;;;14.13;78.04;99650.59;2018327;28;2733691;-73
2024/02/22 04:47:28;;;;;;;;;0.00;0.00;;;;;14.13;77.71;99650.59;1996867;28;2727357;-74
2024/02/22 04:48:42;;;;;;;;;0.00;0.00;;;;;14.14;78.02;99647.88;2003605;28;2731523;-74
2024/02/22 04:49:56;;;;;;;;;0.00;0.00;;;;;14.16;78.15;99643.34;2004757;28;2716925;-73
2024/02/22 04:51:09;;;;;;;;;0.00;0.00;;;;;14.15;78.13;99646.91;2027821;28;2733688;-74
2024/02/22 04:52:22;;;;;;;;;0.00;0.00;;;;;14.15;78.13;99639.00;2004768;28;2733974;-73
2024/02/22 04:53:35;;;;;;;;;0.83;0.33;;;;;14.16;78.05;99645.97;2004931;28;2729468;-74
2024/02/22 04:54:50;;;;;;;;;0.00;0.00;;;;;14.17;78.01;99641.56;2028730;28;2725261;-73
2024/02/22 04:56:03;;;;;;;;;0.83;0.83;;;;;14.17;77.82;99633.63;2028937;28;2723200;-73
2024/02/22 04:57:16;;;;;;;;;0.00;0.00;;;;;14.15;78.05;99636.34;2006075;28;2721095;-74
2024/02/22 04:58:30;;;;;;;;;0.00;0.00;;;;;14.15;77.86;99628.41;2027221;28;2725805;-73
2024/02/22 04:59:43;;;;;;;;;0.00;0.00;;;;;14.16;78.02;99619.56;2004362;28;2729468;-74
2024/02/22 05:00:56;;;;;;;;;0.00;0.00;;;;;14.15;77.80;99615.22;2004489;28;2733599;-73
2024/02/22 05:02:10;;;;;;;;;0.83;0.00;;;;;14.15;77.87;99609.91;2004129;28;2733703;-73
2024/02/22 05:03:23;;;;;;;;;0.33;0.00;;;;;14.15;78.13;99611.72;2005559;28;2722133;-74
2024/02/22 05:04:36;;;;;;;;;0.00;0.00;;;;;14.13;78.01;99605.69;2028110;28;2728402;-73
2024/02/22 05:05:50;;;;;;;;;0.00;0.00;;;;;14.13;78.12;99601.25;2003981;28;2731524;-73
2024/02/22 05:07:03;;;;;;;;;0.00;0.00;;;;;14.14;78.17;99600.31;2005139;28;2733627;-73
2024/02/22 05:08:17;;;;;;;;;0.00;0.00;;;;;14.13;78.10;99595.97;2005698;28;2725266;-73
2024/02/22 05:09:30;;;;;;;;;0.00;0.00;;;;;14.15;77.98;99595.84;2005397;28;2733579;-73
2024/02/22 05:10:43;;;;;;;;;0.67;0.67;;;;;14.15;78.15;99596.72;2003802;27;2731531;-74
2024/02/22 05:11:57;;;;;;;;;0.00;0.00;;;;;14.15;78.04;99591.44;2028087;28;2723175;-73
2024/02/22 05:13:10;;;;;;;;;0.00;0.00;;;;;14.17;77.89;99586.88;2028226;28;2733599;-73
2024/02/22 05:14:23;;;;;;;;;0.83;0.83;;;;;14.16;78.00;99585.19;2005029;28;2731875;-73
2024/02/22 05:15:36;;;;;;;;;0.17;0.17;;;;;14.18;77.97;99583.31;2004783;28;2729436;-73
2024/02/22 05:16:49;;;;;;;;;0.00;0.00;;;;;14.17;78.09;99581.59;2004922;28;2717978;-73
2024/02/22 05:18:04;;;;;;;;;0.67;0.00;;;;;14.17;77.84;99578.13;2028237;28;2723198;-73
2024/02/22 05:19:17;;;;;;;;;0.00;0.00;;;;;14.18;77.97;99574.53;2028513;28;2727685;-74
2024/02/22 05:20:30;;;;;;;;;0.00;0.00;;;;;14.20;78.03;99582.38;2028806;28;2723187;-74
2024/02/22 05:21:43;;;;;;;;;0.00;0.00;;;;;14.20;78.31;99577.09;2020327;28;2720101;-73
2024/02/22 05:22:57;;;;;;;;;0.00;0.00;;;;;14.17;78.13;99572.84;2020014;28;2733631;-74
2024/02/22 05:24:10;;;;;;;;;0.00;0.00;;;;;14.19;78.07;99573.59;2005195;27;2725273;-73
2024/02/22 05:25:25;;;;;;;;;0.00;0.00;;;;;14.17;77.70;99555.16;1997043;28;2723188;-73
2024/02/22 05:26:38;;;;;;;;;0.00;0.00;;;;;14.17;77.88;99551.72;1990679;28;2719037;-74
2024/02/22 05:27:51;;;;;;;;;0.00;0.00;;;;;14.16;78.18;99542.94;2020085;27;2725270;-73
2024/02/22 05:29:05;;;;;;;;;0.00;0.00;;;;;14.17;78.10;99549.06;2004843;28;2729472;-74
2024/02/22 05:30:18;;;;;;;;;0.00;0.00;;;;;14.16;78.09;99545.56;2029034;28;2723176;-74
2024/02/22 05:31:31;;;;;;;;;0.00;0.00;;;;;14.18;78.01;99537.53;2002910;27;2719019;-74
2024/02/22 05:32:44;;;;;;;;;0.00;0.00;;;;;14.18;78.29;99542.81;2028560;27;2725370;-73
2024/02/22 05:33:57;;;;;;;;;0.00;0.00;;;;;14.19;78.21;99533.94;2004870;28;2725277;-73
2024/02/22 05:35:11;;;;;;;;;0.00;0.00;;;;;14.17;78.28;99539.31;2027884;28;2729440;-74
2024/02/22 05:36:24;;;;;;;;;0.00;0.00;;;;;14.18;78.27;99538.38;1997426;28;2725314;-74
2024/02/22 05:37:37;;;;;;;;;0.00;0.00;;;;;14.19;78.29;99536.59;2021079;28;2731516;-73
2024/02/22 05:38:50;;;;;;;;;0.00;0.00;;;;;14.18;78.13;99532.25;2005460;28;2733584;-74